Time;durP1;ratioP1;P1;durP2;ratioP2;P2;SDS_P1;SDS_P2;PMS_P1;PMS_P2;Temp;Humidity;BMP_temperature;BMP_pressure;BME280_temperature;BME280_humidity;BME280_pressure;Samples;Min_cycle;Max_cycle;Signal;HPM_P1;HPM_P2
2022/03/05 00:00:48;;;;;;;20.32;15.10;;;;;;;-0.70;100.00;99396.16;1721659;83;21214;-76
2022/03/05 00:03:55;;;;;;;22.02;15.10;;;;;;;-0.75;100.00;99399.22;1722040;83;21186;-83
2022/03/05 00:07:00;;;;;;;19.85;14.43;;;;;;;-0.77;100.00;99396.64;1722049;83;21238;-76
2022/03/05 00:10:07;;;;;;;21.60;14.47;;;;;;;-0.82;100.00;99398.01;1721950;83;21182;-76
2022/03/05 00:13:12;;;;;;;20.97;14.05;;;;;;;-0.87;100.00;99401.56;1722190;83;21698;-83
2022/03/05 00:16:18;;;;;;;18.48;13.48;;;;;;;-0.96;100.00;99407.19;1721633;83;21215;-76
2022/03/05 00:19:25;;;;;;;24.50;15.43;;;;;;;-1.04;100.00;99401.09;1721843;83;21158;-83
2022/03/05 00:22:30;;;;;;;25.68;15.30;;;;;;;-1.13;99.97;99404.55;1721325;83;21311;-82
2022/03/05 00:25:37;;;;;;;26.85;16.62;;;;;;;-1.20;99.78;99401.14;1721114;83;21724;-79
2022/03/05 00:28:42;;;;;;;20.30;14.30;;;;;;;-1.26;99.99;99411.03;1720506;83;21182;-83
2022/03/05 00:31:48;;;;;;;22.45;15.20;;;;;;;-1.32;100.00;99401.62;1720920;83;21174;-77
2022/03/05 00:34:53;;;;;;;19.80;13.80;;;;;;;-1.36;100.00;99407.74;1721601;83;21190;-83
2022/03/05 00:37:59;;;;;;;21.00;14.78;;;;;;;-1.39;100.00;99409.32;1720996;83;21197;-83
2022/03/05 00:41:05;;;;;;;21.70;15.30;;;;;;;-1.42;100.00;99405.53;1721888;83;21179;-76
2022/03/05 00:44:09;;;;;;;26.95;16.02;;;;;;;-1.44;100.00;99407.49;1721898;82;21174;-82
2022/03/05 00:47:15;;;;;;;22.65;15.32;;;;;;;-1.44;100.00;99410.66;1725398;81;21198;-76
2022/03/05 00:50:21;;;;;;;21.97;14.95;;;;;;;-1.47;100.00;99405.53;1746321;82;21493;-76
2022/03/05 00:53:26;;;;;;;22.60;16.42;;;;;;;-1.46;100.00;99401.87;1744795;82;21226;-82
2022/03/05 00:56:31;;;;;;;23.85;15.28;;;;;;;-1.45;100.00;99402.26;1745031;82;21744;-75
2022/03/05 00:59:35;;;;;;;25.35;16.97;;;;;;;-1.44;100.00;99407.49;1746325;82;21144;-75
2022/03/05 01:02:42;;;;;;;25.62;15.40;;;;;;;-1.39;100.00;99397.25;1745407;82;21180;-75
2022/03/05 01:05:49;;;;;;;25.20;15.20;;;;;;;-1.35;100.00;99399.20;1745758;82;21745;-82
2022/03/05 01:08:56;;;;;;;23.18;14.70;;;;;;;-1.33;100.00;99406.13;1746086;82;21741;-75
2022/03/05 01:12:01;;;;;;;26.07;15.55;;;;;;;-1.32;100.00;99403.84;1745866;82;21224;-82
2022/03/05 01:15:08;;;;;;;21.95;15.03;;;;;;;-1.29;100.00;99402.23;1746186;82;21746;-77
2022/03/05 01:18:14;;;;;;;23.38;15.43;;;;;;;-1.25;100.00;99403.34;1744787;81;21208;-81
2022/03/05 01:21:19;;;;;;;24.18;16.05;;;;;;;-1.21;100.00;99399.44;1746159;82;21197;-75
2022/03/05 01:24:24;;;;;;;23.80;15.75;;;;;;;-1.17;100.00;99397.72;1735243;81;21141;-82
2022/03/05 01:27:30;;;;;;;21.45;14.15;;;;;;;-1.15;100.00;99398.44;1733330;81;21244;-77
2022/03/05 01:30:36;;;;;;;21.75;15.08;;;;;;;-1.12;100.00;99386.62;1734124;82;21726;-76
2022/03/05 01:33:41;;;;;;;24.30;15.88;;;;;;;-1.09;100.00;99399.77;1733661;82;21200;-82
2022/03/05 01:36:46;;;;;;;21.15;14.70;;;;;;;-1.09;100.00;99394.40;1733262;82;21204;-83
2022/03/05 01:39:52;;;;;;;22.52;16.05;;;;;;;-1.08;100.00;99394.79;1735275;82;21173;-83
2022/03/05 01:42:58;;;;;;;23.35;16.17;;;;;;;-1.07;100.00;99405.87;1733913;82;21180;-82
2022/03/05 01:46:03;;;;;;;21.87;16.05;;;;;;;-1.07;100.00;99398.68;1733909;82;21249;-83
2022/03/05 01:49:11;;;;;;;22.30;15.93;;;;;;;-1.07;100.00;99405.39;1735673;82;21196;-74
2022/03/05 01:52:18;;;;;;;24.02;16.67;;;;;;;-1.06;100.00;99404.89;1735011;82;21201;-75
2022/03/05 01:55:24;;;;;;;22.27;16.10;;;;;;;-1.07;100.00;99408.56;1735400;82;21161;-76
2022/03/05 01:58:29;;;;;;;21.25;14.63;;;;;;;-1.07;100.00;99408.08;1734014;82;21201;-82
2022/03/05 02:01:36;;;;;;;21.20;15.08;;;;;;;-1.07;100.00;99417.95;1735457;82;21188;-76
2022/03/05 02:04:42;;;;;;;22.45;15.68;;;;;;;-1.08;100.00;99423.82;1735448;82;21145;-76
2022/03/05 02:07:48;;;;;;;23.45;16.40;;;;;;;-1.10;100.00;99420.88;1734525;82;21213;-82
2022/03/05 02:10:53;;;;;;;23.52;14.83;;;;;;;-1.11;100.00;99416.50;1735676;82;21193;-76
2022/03/05 02:13:58;;;;;;;20.30;13.58;;;;;;;-1.11;100.00;99425.89;1735468;82;21161;-77
2022/03/05 02:17:04;;;;;;;19.57;13.90;;;;;;;-1.13;100.00;99430.05;1735143;82;21719;-81
2022/03/05 02:20:13;;;;;;;20.25;15.08;;;;;;;-1.14;99.46;99431.00;1735380;82;21184;-76
2022/03/05 02:23:19;;;;;;;22.25;15.95;;;;;;;-1.16;98.67;99437.00;1735188;82;21177;-78
2022/03/05 02:26:24;;;;;;;20.75;15.78;;;;;;;-1.21;98.37;99439.20;1735078;82;21228;-82
2022/03/05 02:29:29;;;;;;;22.17;15.78;;;;;;;-1.23;98.23;99442.97;1735386;82;21200;-78
2022/03/05 02:32:35;;;;;;;19.65;14.28;;;;;;;-1.26;98.60;99451.28;1734717;82;21745;-82
2022/03/05 02:35:43;;;;;;;21.25;14.43;;;;;;;-1.29;98.68;99440.29;1735390;82;21726;-77
2022/03/05 02:38:50;;;;;;;24.20;16.13;;;;;;;-1.34;98.41;99440.66;1735586;82;21703;-82
2022/03/05 02:41:56;;;;;;;20.20;13.95;;;;;;;-1.35;98.23;99448.34;1735564;82;21188;-82
2022/03/05 02:45:01;;;;;;;20.10;14.58;;;;;;;-1.37;98.12;99439.55;1735522;82;21734;-81
2022/03/05 02:48:06;;;;;;;22.15;13.72;;;;;;;-1.39;98.04;99446.88;1735332;82;21184;-75
2022/03/05 02:51:11;;;;;;;21.33;13.95;;;;;;;-1.42;98.11;99446.26;1734678;82;21235;-82
2022/03/05 02:54:16;;;;;;;21.27;14.30;;;;;;;-1.44;98.50;99446.39;1735484;82;21165;-81
2022/03/05 02:57:22;;;;;;;20.88;14.53;;;;;;;-1.41;99.00;99456.89;1735523;82;21192;-82
2022/03/05 03:00:27;;;;;;;21.37;14.50;;;;;;;-1.39;99.13;99453.58;1735499;82;21149;-81
2022/03/05 03:03:32;;;;;;;20.08;13.32;;;;;;;-1.35;99.25;99456.39;1735430;82;21777;-82
2022/03/05 03:06:37;;;;;;;24.87;15.75;;;;;;;-1.33;99.26;99455.77;1735523;82;21205;-76
2022/03/05 03:09:43;;;;;;;20.85;14.43;;;;;;;-1.36;99.60;99452.01;1735503;82;21194;-82
2022/03/05 03:12:48;;;;;;;20.85;12.75;;;;;;;-1.36;99.81;99455.19;1735357;82;21200;-75
2022/03/05 03:15:58;;;;;;;18.55;13.48;;;;;;;-1.37;99.95;99462.35;1735576;82;21161;-76
2022/03/05 03:19:01;;;;;;;20.75;13.83;;;;;;;-1.38;100.00;99459.30;1735541;82;21231;-82
2022/03/05 03:22:07;;;;;;;19.37;14.58;;;;;;;-1.38;100.00;99462.48;1735498;82;21225;-76
2022/03/05 03:25:07;;;;;;;22.15;14.15;;;;;;;-1.38;100.00;99459.80;1735568;82;21723;-82
2022/03/05 03:28:12;;;;;;;21.37;14.07;;;;;;;-1.38;100.00;99463.33;1735515;82;21181;-75
2022/03/05 03:31:17;;;;;;;21.25;15.28;;;;;;;-1.38;100.00;99459.30;1735484;82;21242;-76
2022/03/05 03:34:23;;;;;;;22.55;15.95;;;;;;;-1.36;100.00;99475.30;1735519;82;21180;-75
2022/03/05 03:37:29;;;;;;;18.32;13.20;;;;;;;-1.34;100.00;99464.80;1735389;82;21224;-82
2022/03/05 03:40:34;;;;;;;19.27;13.32;;;;;;;-1.34;100.00;99448.70;1735492;82;21188;-81
2022/03/05 03:43:40;;;;;;;19.90;14.38;;;;;;;-1.35;100.00;99466.27;1735446;82;21201;-81
2022/03/05 03:46:46;;;;;;;20.08;14.20;;;;;;;-1.35;100.00;99468.95;1735409;82;21232;-75
2022/03/05 03:49:50;;;;;;;24.43;14.38;;;;;;;-1.39;100.00;99464.31;1735534;82;21185;-75
2022/03/05 03:52:55;;;;;;;20.90;13.72;;;;;;;-1.38;100.00;99473.21;1748927;82;21168;-82
2022/03/05 03:56:01;;;;;;;19.67;14.13;;;;;;;-1.41;100.00;99474.33;1749060;82;21204;-78
2022/03/05 03:59:06;;;;;;;19.30;13.70;;;;;;;-1.42;100.00;99475.27;1747991;82;21733;-82
2022/03/05 04:02:13;;;;;;;20.77;14.05;;;;;;;-1.44;100.00;99462.48;1748560;82;21539;-82
2022/03/05 04:05:20;;;;;;;18.65;12.55;;;;;;;-1.44;100.00;99474.55;1748664;82;21239;-82
2022/03/05 04:08:44;;;;;;;16.17;11.88;;;;;;;-1.47;100.00;99474.78;1747630;82;21176;-82
2022/03/05 04:11:51;;;;;;;19.05;12.80;;;;;;;-1.48;100.00;99483.81;1748829;82;21223;-82
2022/03/05 04:14:58;;;;;;;21.45;14.35;;;;;;;-1.52;100.00;99491.73;1749031;82;21196;-76
2022/03/05 04:18:05;;;;;;;18.73;13.40;;;;;;;-1.53;100.00;99491.37;1749202;82;21196;-76
2022/03/05 04:21:11;;;;;;;17.48;12.07;;;;;;;-1.52;100.00;99493.06;1749077;82;21196;-82
2022/03/05 04:24:17;;;;;;;20.37;14.30;;;;;;;-1.51;100.00;99495.26;1749235;82;21193;-76
2022/03/05 04:27:22;;;;;;;19.15;13.58;;;;;;;-1.49;100.00;99494.18;1749272;82;21196;-76
2022/03/05 04:30:28;;;;;;;20.82;13.90;;;;;;;-1.47;100.00;99498.92;1749368;82;21889;-77
2022/03/05 04:33:34;;;;;;;23.52;14.58;;;;;;;-1.46;100.00;99501.97;1749189;82;21742;-76
2022/03/05 04:36:41;;;;;;;17.62;11.90;;;;;;;-1.43;100.00;99500.40;1749280;82;21180;-82
2022/03/05 04:39:46;;;;;;;20.02;13.30;;;;;;;-1.41;100.00;99501.15;1755332;80;21137;-82
2022/03/05 04:42:53;;;;;;;21.00;13.60;;;;;;;-1.39;100.00;99507.23;1782919;80;21193;-82
2022/03/05 04:45:58;;;;;;;18.25;12.60;;;;;;;-1.37;100.00;99504.42;1784830;80;21200;-76
2022/03/05 04:49:04;;;;;;;21.10;13.05;;;;;;;-1.38;100.00;99502.23;1783121;80;21581;-76
2022/03/05 04:52:10;;;;;;;19.17;12.63;;;;;;;-1.37;100.00;99501.25;1781335;80;21233;-75
2022/03/05 04:55:17;;;;;;;17.42;12.18;;;;;;;-1.34;100.00;99510.41;1771031;81;21154;-83
2022/03/05 04:58:23;;;;;;;18.65;12.68;;;;;;;-1.35;100.00;99497.98;1770313;81;21742;-76
2022/03/05 05:01:29;;;;;;;16.95;11.90;;;;;;;-1.37;99.75;99501.73;1771921;81;21209;-82
2022/03/05 05:04:36;;;;;;;17.75;12.25;;;;;;;-1.39;99.59;99499.19;1771885;81;21760;-82
2022/03/05 05:07:42;;;;;;;15.88;11.70;;;;;;;-1.39;99.90;99507.73;1770652;81;21154;-76
2022/03/05 05:10:47;;;;;;;25.52;13.30;;;;;;;-1.40;100.00;99511.39;1772164;81;21197;-76
2022/03/05 05:13:53;;;;;;;15.45;11.35;;;;;;;-1.40;99.96;99521.63;1770586;80;21158;-82
2022/03/05 05:17:00;;;;;;;15.55;10.80;;;;;;;-1.38;100.00;99520.16;1772039;81;21746;-76
2022/03/05 05:20:06;;;;;;;17.35;11.60;;;;;;;-1.38;99.40;99530.89;1772178;81;21747;-76
2022/03/05 05:23:12;;;;;;;19.80;12.18;;;;;;;-1.38;99.45;99530.40;1772000;81;21727;-76
2022/03/05 05:26:18;;;;;;;19.55;11.48;;;;;;;-1.38;99.44;99529.06;1771950;81;21158;-82
2022/03/05 05:29:24;;;;;;;17.73;11.85;;;;;;;-1.35;99.37;99534.20;1771458;81;21710;-82
2022/03/05 05:32:31;;;;;;;15.38;9.88;;;;;;;-1.35;98.60;99542.73;1771191;81;21185;-81
2022/03/05 05:35:36;;;;;;;17.75;11.22;;;;;;;-1.37;97.90;99544.17;1771931;81;21734;-76
2022/03/05 05:38:43;;;;;;;14.53;9.90;;;;;;;-1.40;97.87;99552.48;1770532;81;21694;-76
2022/03/05 05:41:48;;;;;;;20.48;10.15;;;;;;;-1.39;97.87;99553.34;1771656;81;21184;-76
2022/03/05 05:44:55;;;;;;;16.27;11.43;;;;;;;-1.40;98.02;99549.80;1771887;81;21730;-77
2022/03/05 05:48:02;;;;;;;15.00;10.00;;;;;;;-1.39;97.97;99546.63;1770768;81;21739;-80
2022/03/05 05:51:08;;;;;;;16.67;11.25;;;;;;;-1.40;98.04;99552.48;1770614;81;21189;-76
2022/03/05 05:54:13;;;;;;;12.85;9.50;;;;;;;-1.38;98.24;99549.67;1778909;80;21188;-76
2022/03/05 05:57:20;;;;;;;14.87;10.08;;;;;;;-1.34;98.49;99559.20;1785015;80;21189;-82
2022/03/05 06:00:26;;;;;;;18.23;11.55;;;;;;;-1.33;98.48;99572.48;1784750;80;21137;-76
2022/03/05 06:03:32;;;;;;;15.30;10.30;;;;;;;-1.32;98.42;99563.48;1783612;80;21199;-76
2022/03/05 06:06:38;;;;;;;13.38;9.25;;;;;;;-1.27;98.46;99570.30;1762488;80;21176;-82
2022/03/05 06:09:44;;;;;;;16.07;10.75;;;;;;;-1.22;98.00;99589.57;1753885;80;21244;-76
2022/03/05 06:12:50;;;;;;;15.08;9.53;;;;;;;-1.18;97.94;99585.19;1774153;80;21212;-76
2022/03/05 06:15:57;;;;;;;15.05;10.25;;;;;;;-1.12;97.10;99599.98;1781762;80;21208;-82
2022/03/05 06:19:02;;;;;;;15.28;9.88;;;;;;;-1.09;96.47;99594.36;1782695;80;21157;-82
2022/03/05 06:22:08;;;;;;;13.53;8.93;;;;;;;-1.06;96.44;99599.01;1781925;80;21252;-77
2022/03/05 06:25:14;;;;;;;13.60;9.03;;;;;;;-1.02;96.60;99599.63;1771117;80;21414;-83
2022/03/05 06:28:19;;;;;;;14.10;9.35;;;;;;;-1.00;96.50;99606.20;1779108;79;21185;-83
2022/03/05 06:31:26;;;;;;;14.03;9.35;;;;;;;-1.02;96.21;99605.49;1783491;79;21165;-77
2022/03/05 06:34:31;;;;;;;16.67;10.38;;;;;;;-1.03;96.66;99605.98;1774444;79;21216;-82
2022/03/05 06:37:36;;;;;;;14.85;10.00;;;;;;;-0.99;97.23;99604.73;1771891;80;21200;-75
2022/03/05 06:40:41;;;;;;;15.95;9.58;;;;;;;-0.95;96.86;99603.53;1777296;80;21133;-81
2022/03/05 06:43:46;;;;;;;14.18;9.35;;;;;;;-0.94;96.99;99601.69;1755715;80;21193;-82
2022/03/05 06:46:52;;;;;;;13.35;9.70;;;;;;;-0.92;97.22;99603.30;1784187;79;21176;-81
2022/03/05 06:49:57;;;;;;;13.83;9.05;;;;;;;-0.92;97.06;99607.33;1781371;80;21187;-77
2022/03/05 06:53:02;;;;;;;12.40;8.85;;;;;;;-0.88;97.23;99607.95;1775300;80;21166;-75
2022/03/05 06:56:08;;;;;;;12.58;8.78;;;;;;;-0.87;97.12;99590.36;1760810;80;21712;-82
2022/03/05 06:59:13;;;;;;;13.43;9.73;;;;;;;-0.81;96.86;99606.47;1767210;81;21684;-77
2022/03/05 07:02:19;;;;;;;12.35;8.18;;;;;;;-0.74;97.20;99612.23;1763273;79;21786;-81
2022/03/05 07:05:25;;;;;;;15.28;8.80;;;;;;;-0.66;96.58;99612.45;1723081;82;21782;-82
2022/03/05 07:08:30;;;;;;;13.72;9.13;;;;;;;-0.67;96.26;99609.41;1749394;81;21161;-76
2022/03/05 07:11:35;;;;;;;12.40;7.67;;;;;;;-0.69;96.36;99608.69;1755186;81;21587;-81
2022/03/05 07:14:44;;;;;;;12.55;7.87;;;;;;;-0.65;96.75;99616.88;1755969;81;21718;-82
2022/03/05 07:17:59;;;;;;;13.40;8.70;;;;;;;-0.66;96.21;99616.48;1758564;81;21229;-82
2022/03/05 07:21:04;;;;;;;13.65;8.50;;;;;;;-0.72;96.00;99608.92;1738328;82;21201;-76
2022/03/05 07:24:10;;;;;;;11.65;8.28;;;;;;;-0.72;96.21;99621.00;1763468;81;21161;-82
2022/03/05 07:27:15;;;;;;;10.55;7.22;;;;;;;-0.63;96.43;99619.78;1752707;81;21826;-76
2022/03/05 07:30:20;;;;;;;14.25;7.67;;;;;;;-0.58;95.18;99616.73;1767317;81;21712;-76
2022/03/05 07:33:26;;;;;;;11.33;7.70;;;;;;;-0.56;94.50;99622.86;1768255;81;21798;-81
2022/03/05 07:36:31;;;;;;;13.60;7.78;;;;;;;-0.54;94.53;99611.48;1760370;79;21203;-77
2022/03/05 07:39:36;;;;;;;13.30;8.30;;;;;;;-0.48;94.79;99626.25;1760714;81;21193;-82
2022/03/05 07:42:43;;;;;;;10.53;7.33;;;;;;;-0.42;94.41;99625.30;1764440;81;21141;-76
2022/03/05 07:45:49;;;;;;;9.05;6.58;;;;;;;-0.35;94.03;99618.92;1768086;81;21129;-76
2022/03/05 07:48:56;;;;;;;11.10;7.87;;;;;;;-0.37;92.76;99623.09;1769761;81;21114;-76
2022/03/05 07:52:01;;;;;;;11.50;7.70;;;;;;;-0.40;92.68;99614.41;1760722;79;21829;-82
2022/03/05 07:55:08;;;;;;;13.60;8.38;;;;;;;-0.44;92.29;99615.14;1759609;81;21189;-75
2022/03/05 07:58:13;;;;;;;11.00;7.25;;;;;;;-0.40;92.29;99615.75;1772009;79;21192;-81
2022/03/05 08:01:18;;;;;;;10.72;7.67;;;;;;;-0.39;92.22;99612.94;1769410;80;21145;-75
2022/03/05 08:04:25;;;;;;;11.85;7.83;;;;;;;-0.40;92.48;99616.61;1777629;80;21710;-76
2022/03/05 08:07:33;;;;;;;10.30;7.30;;;;;;;-0.37;91.76;99612.83;1763922;80;21223;-83
2022/03/05 08:10:38;;;;;;;11.12;6.90;;;;;;;-0.34;91.35;99617.45;1770715;80;21236;-81
2022/03/05 08:13:46;;;;;;;10.75;7.37;;;;;;;-0.28;92.19;99619.66;1773783;80;21130;-81
2022/03/05 08:16:51;;;;;;;9.90;7.15;;;;;;;-0.23;92.30;99624.66;1770832;79;21707;-82
2022/03/05 08:19:57;;;;;;;11.65;7.40;;;;;;;-0.18;92.30;99624.29;1768544;80;21182;-76
2022/03/05 08:23:04;;;;;;;10.03;6.75;;;;;;;-0.12;91.76;99619.25;1765221;80;21181;-75
2022/03/05 08:26:13;;;;;;;12.90;7.80;;;;;;;-0.05;90.95;99626.31;1769563;80;21244;-75
2022/03/05 08:29:18;;;;;;;10.53;6.62;;;;;;;0.04;91.47;99634.97;1778411;80;21232;-75
2022/03/05 08:32:25;;;;;;;11.90;7.95;;;;;;;0.14;91.97;99644.02;1763336;80;21179;-81
2022/03/05 08:35:31;;;;;;;10.88;6.95;;;;;;;0.22;90.85;99640.19;1765168;80;21129;-76
2022/03/05 08:38:37;;;;;;;13.50;6.87;;;;;;;0.23;90.17;99641.04;1771815;80;21138;-77
2022/03/05 08:41:43;;;;;;;10.53;7.08;;;;;;;0.24;89.78;99646.31;1772485;80;21248;-82
2022/03/05 08:44:48;;;;;;;11.03;7.10;;;;;;;0.20;89.82;99642.16;1762503;80;21260;-76
2022/03/05 08:47:53;;;;;;;10.55;6.75;;;;;;;0.23;89.92;99641.89;1771241;79;21204;-76
2022/03/05 08:50:58;;;;;;;12.33;7.85;;;;;;;0.23;89.31;99651.80;1765275;80;21216;-82
2022/03/05 08:54:04;;;;;;;12.35;7.15;;;;;;;0.19;89.17;99660.63;1764919;80;21781;-76
2022/03/05 08:57:11;;;;;;;9.18;6.62;;;;;;;0.16;90.10;99670.28;1767715;79;21169;-82
2022/03/05 09:00:17;;;;;;;10.55;6.65;;;;;;;0.14;90.88;99660.16;1758650;80;21830;-82
2022/03/05 09:03:22;;;;;;;11.63;7.75;;;;;;;0.08;90.16;99661.13;1763808;79;21732;-82
2022/03/05 09:06:29;;;;;;;10.38;6.90;;;;;;;0.02;90.11;99663.84;1763043;79;21142;-76
2022/03/05 09:09:34;;;;;;;10.65;7.37;;;;;;;0.02;90.33;99667.88;1767318;81;21213;-82
2022/03/05 09:12:42;;;;;;;10.80;6.78;;;;;;;0.03;91.18;99668.23;1768734;79;21189;-82
2022/03/05 09:15:48;;;;;;;12.98;7.92;;;;;;;0.10;90.96;99662.73;1764860;81;21759;-76
2022/03/05 09:18:53;;;;;;;11.78;6.92;;;;;;;0.16;90.57;99664.06;1770303;81;21671;-82
2022/03/05 09:21:58;;;;;;;12.25;7.65;;;;;;;0.21;90.61;99669.42;1766090;79;21197;-76
2022/03/05 09:25:03;;;;;;;9.15;6.65;;;;;;;0.34;90.28;99643.72;1767449;80;21145;-76
2022/03/05 09:28:08;;;;;;;8.45;6.40;;;;;;;0.48;91.04;99661.41;1769856;79;21225;-83
2022/03/05 09:31:13;;;;;;;11.40;7.00;;;;;;;0.56;89.70;99658.05;1762219;80;21154;-83
2022/03/05 09:34:19;;;;;;;9.55;6.95;;;;;;;0.54;89.61;99639.34;1764065;80;21213;-75
2022/03/05 09:37:24;;;;;;;9.20;6.30;;;;;;;0.61;88.86;99649.09;1760202;79;21181;-76
2022/03/05 09:40:30;;;;;;;10.15;6.65;;;;;;;0.64;88.31;99663.65;1761860;80;21126;-82
2022/03/05 09:43:36;;;;;;;10.48;6.40;;;;;;;0.67;87.61;99657.53;1768871;81;21126;-75
2022/03/05 09:46:42;;;;;;;10.28;7.05;;;;;;;0.72;86.99;99662.03;1768675;81;21209;-83
2022/03/05 09:49:48;;;;;;;9.55;6.05;;;;;;;0.74;86.75;99661.89;1771122;81;21146;-83
2022/03/05 09:52:53;;;;;;;8.63;6.25;;;;;;;0.70;84.23;99661.28;1752986;81;21185;-83
2022/03/05 09:55:59;;;;;;;9.85;6.10;;;;;;;0.60;82.47;99668.92;1765641;81;22096;-76
2022/03/05 09:59:07;;;;;;;10.68;6.92;;;;;;;0.49;83.62;99671.17;1750273;80;21763;-76
2022/03/05 10:02:13;;;;;;;7.87;6.17;;;;;;;0.48;83.97;99672.16;1764889;80;21196;-83
2022/03/05 10:05:26;;;;;;;11.40;7.45;;;;;;;0.56;84.74;99669.66;1772499;80;21145;-77
2022/03/05 10:08:33;;;;;;;11.15;6.45;;;;;;;0.64;85.60;99660.96;1777235;80;21217;-76
2022/03/05 10:11:48;;;;;;;13.60;6.10;;;;;;;0.65;84.58;99670.24;1758859;79;21161;-82
2022/03/05 10:15:14;;;;;;;9.98;7.12;;;;;;;0.66;84.21;99671.09;1768475;79;21663;-81
2022/03/05 10:18:21;;;;;;;10.68;7.37;;;;;;;0.68;84.71;99675.88;1770618;79;21139;-81
2022/03/05 10:21:38;;;;;;;6.95;5.45;;;;;;;0.76;85.69;99668.87;1768662;80;21187;-76
2022/03/05 10:24:46;;;;;;;9.55;6.72;;;;;;;0.84;85.85;99671.38;1768994;80;21209;-81
2022/03/05 10:27:52;;;;;;;9.68;6.45;;;;;;;0.93;87.20;99681.37;1771512;79;21185;-75
2022/03/05 10:31:03;;;;;;;8.73;6.78;;;;;;;0.94;87.59;99677.23;1770997;80;21150;-75
2022/03/05 10:34:11;;;;;;;8.63;5.70;;;;;;;0.83;87.82;99679.11;1777135;80;21924;-80
2022/03/05 10:37:16;;;;;;;10.32;6.37;;;;;;;0.65;87.49;99685.05;1781225;80;21244;-76
2022/03/05 10:40:21;;;;;;;7.00;5.33;;;;;;;0.54;88.57;99681.06;1772473;80;21149;-81
2022/03/05 10:43:27;;;;;;;9.20;6.70;;;;;;;0.40;88.93;99690.28;1778403;80;22159;-75
2022/03/05 10:46:49;;;;;;;8.43;6.03;;;;;;;0.33;90.10;99694.93;1775638;80;21778;-82
2022/03/05 10:49:54;;;;;;;9.18;6.50;;;;;;;0.29;89.01;99688.13;1775821;80;21742;-76
2022/03/05 10:53:07;;;;;;;10.15;6.92;;;;;;;0.25;87.85;99685.67;1780370;80;21185;-76
2022/03/05 10:56:33;;;;;;;8.48;6.22;;;;;;;0.25;89.69;99688.36;1773633;79;21156;-81
2022/03/05 10:59:43;;;;;;;10.03;7.20;;;;;;;0.20;90.58;99691.92;1776048;80;21143;-75
2022/03/05 11:02:49;;;;;;;10.53;6.80;;;;;;;0.19;92.40;99691.56;1769852;81;21734;-82
2022/03/05 11:05:56;;;;;;;11.03;6.90;;;;;;;0.27;93.07;99698.14;1771589;81;21138;-75
2022/03/05 11:09:03;;;;;;;8.08;5.97;;;;;;;0.30;90.29;99695.20;1769863;81;21202;-82
2022/03/05 11:12:09;;;;;;;9.50;6.95;;;;;;;0.30;91.02;99689.83;1770176;81;21169;-81
2022/03/05 11:15:16;;;;;;;16.65;9.68;;;;;;;0.30;89.10;99700.59;1762079;81;21724;-81
2022/03/05 11:18:22;;;;;;;10.05;6.55;;;;;;;0.29;89.78;99705.61;1761619;81;21195;-75
2022/03/05 11:21:29;;;;;;;11.33;6.75;;;;;;;0.31;88.80;99700.45;1768498;81;21824;-75
2022/03/05 11:24:34;;;;;;;13.53;8.45;;;;;;;0.33;90.40;99705.69;1761034;81;21146;-76
2022/03/05 11:27:40;;;;;;;8.58;6.65;;;;;;;0.31;90.82;99709.02;1763123;79;21165;-75
2022/03/05 11:30:50;;;;;;;11.00;7.17;;;;;;;0.22;90.59;99706.09;1750107;81;21193;-75
2022/03/05 11:33:56;;;;;;;11.80;8.40;;;;;;;0.19;92.21;99705.51;1771335;81;21153;-81
2022/03/05 11:36:58;;;;;;;15.63;9.50;;;;;;;0.20;92.59;99698.65;1722296;82;21227;-82
2022/03/05 11:40:03;;;;;;;18.60;11.30;;;;;;;0.24;93.10;99701.95;1767242;81;21162;-76
2022/03/05 11:43:31;;;;;;;18.77;12.37;;;;;;;0.22;91.98;99699.86;1762786;79;21193;-75
2022/03/05 11:46:38;;;;;;;22.90;13.55;;;;;;;0.15;91.22;99700.86;1765392;79;21542;-82
2022/03/05 11:49:48;;;;;;;15.63;11.35;;;;;;;0.10;91.16;99715.66;1764982;80;21722;-76
2022/03/05 11:53:05;;;;;;;16.87;10.20;;;;;;;0.08;91.58;99711.73;1764385;81;21750;-83
2022/03/05 11:56:30;;;;;;;15.90;11.18;;;;;;;0.05;91.73;99724.11;1766671;79;21193;-76
2022/03/05 11:59:44;;;;;;;20.88;14.58;;;;;;;0.01;92.46;99723.98;1758022;81;21194;-83
2022/03/05 12:02:54;;;;;;;16.30;11.73;;;;;;;-0.06;93.12;99733.50;1766158;79;21221;-75
2022/03/05 12:06:01;;;;;;;20.40;13.55;;;;;;;-0.12;92.56;99746.10;1760976;81;21177;-82
2022/03/05 12:09:06;;;;;;;21.93;14.93;;;;;;;-0.15;92.37;99744.98;1767265;80;21162;-76
2022/03/05 12:12:16;;;;;;;21.23;15.13;;;;;;;-0.16;92.69;99748.66;1759877;80;21213;-76
2022/03/05 12:15:21;;;;;;;22.87;15.25;;;;;;;-0.16;92.73;99738.76;1751530;81;21185;-77
2022/03/05 12:18:28;;;;;;;25.55;16.57;;;;;;;-0.12;92.97;99750.98;1767724;79;21292;-76
2022/03/05 12:21:40;;;;;;;25.05;15.70;;;;;;;-0.10;93.67;99750.85;1768358;81;21794;-82
2022/03/05 12:24:47;;;;;;;27.40;17.10;;;;;;;-0.11;94.37;99754.03;1763431;81;21205;-76
2022/03/05 12:27:55;;;;;;;23.45;17.23;;;;;;;-0.15;95.31;99755.25;1768187;81;21181;-82
2022/03/05 12:31:05;;;;;;;25.92;17.52;;;;;;;-0.16;95.92;99763.45;1765764;81;21204;-81
2022/03/05 12:34:08;;;;;;;25.92;15.83;;;;;;;-0.17;96.36;99769.31;1765466;81;21208;-82
2022/03/05 12:37:12;;;;;;;23.25;12.90;;;;;;;-0.16;96.34;99761.61;1764671;79;21205;-82
2022/03/05 12:40:19;;;;;;;16.12;11.43;;;;;;;-0.16;95.60;99776.39;1755382;81;21142;-76
2022/03/05 12:43:23;;;;;;;21.48;12.70;;;;;;;-0.17;95.05;99777.87;1766702;81;21429;-76
2022/03/05 12:46:29;;;;;;;20.30;14.00;;;;;;;-0.19;95.27;99768.56;1761405;81;21244;-82
2022/03/05 12:49:34;;;;;;;14.45;11.43;;;;;;;-0.18;96.23;99771.64;1769583;81;21284;-76
2022/03/05 12:52:41;;;;;;;15.75;10.40;;;;;;;-0.17;96.72;99780.56;1763025;81;21211;-82
2022/03/05 12:56:01;;;;;;;14.05;10.13;;;;;;;-0.17;96.39;99777.87;1766362;81;21461;-76
2022/03/05 12:59:06;;;;;;;13.50;9.73;;;;;;;-0.18;96.13;99786.92;1767064;81;21723;-76
2022/03/05 13:02:11;;;;;;;17.05;10.93;;;;;;;-0.20;97.20;99784.33;1772736;79;21838;-76
2022/03/05 13:05:22;;;;;;;13.15;10.28;;;;;;;-0.24;97.89;99791.41;1736753;82;21200;-77
2022/03/05 13:08:33;;;;;;;11.83;8.70;;;;;;;-0.28;98.58;99795.70;1715749;82;21210;-81
2022/03/05 13:11:37;;;;;;;10.23;7.80;;;;;;;-0.29;98.54;99793.96;1719099;83;21275;-76
2022/03/05 13:14:45;;;;;;;13.05;8.48;;;;;;;-0.24;98.62;99795.44;1729828;82;21280;-81
2022/03/05 13:17:56;;;;;;;11.65;8.15;;;;;;;-0.20;99.01;99804.48;1730604;82;21239;-76
2022/03/05 13:21:10;;;;;;;13.55;9.43;;;;;;;-0.19;99.41;99802.66;1733700;82;21206;-76
2022/03/05 13:24:19;;;;;;;12.30;8.10;;;;;;;-0.17;99.87;99804.75;1723151;83;21760;-76
2022/03/05 13:27:26;;;;;;;;;;;;;;;-0.14;99.92;99816.59;1736271;82;21797;-83
2022/03/05 13:30:34;;;;;;;12.82;7.72;;;;;;;-0.15;100.00;99814.88;1722916;83;20222;-76
2022/03/05 13:33:56;;;;;;;11.30;7.17;;;;;;;-0.18;100.00;99816.00;1738122;82;21160;-82
2022/03/05 13:37:00;;;;;;;11.85;7.50;;;;;;;-0.21;100.00;99822.09;1723893;81;21814;-78
2022/03/05 13:40:08;;;;;;;9.18;7.00;;;;;;;-0.28;100.00;99836.02;1718727;82;21177;-77
2022/03/05 13:43:13;;;;;;;9.93;7.95;;;;;;;-0.28;100.00;99830.64;1728356;82;21715;-76
2022/03/05 13:46:19;;;;;;;11.40;7.30;;;;;;;-0.26;100.00;99830.02;1745161;82;21301;-77
2022/03/05 13:49:26;;;;;;;9.63;7.62;;;;;;;-0.26;100.00;99837.23;1737201;82;21179;-84
2022/03/05 13:52:31;;;;;;;10.08;7.60;;;;;;;-0.31;100.00;99840.28;1743476;82;21817;-84
2022/03/05 13:55:35;;;;;;;8.68;6.12;;;;;;;-0.37;100.00;99843.94;1733583;82;21657;-77
2022/03/05 13:58:41;;;;;;;11.75;7.72;;;;;;;-0.42;100.00;99848.32;1703265;83;21824;-77
2022/03/05 14:01:46;;;;;;;12.10;7.78;;;;;;;-0.45;100.00;99854.41;1723541;83;21334;-83
2022/03/05 14:05:17;;;;;;;11.25;7.90;;;;;;;-0.46;100.00;99856.24;1736712;82;21701;-77
2022/03/05 14:08:21;;;;;;;10.00;7.00;;;;;;;-0.47;100.00;99854.53;1736851;81;21212;-77
2022/03/05 14:11:24;;;;;;;11.75;7.37;;;;;;;-0.50;100.00;99857.94;1737100;81;21286;-77
2022/03/05 14:14:27;;;;;;;9.30;6.78;;;;;;;-0.53;100.00;99861.70;1737187;82;21304;-77
2022/03/05 14:17:51;;;;;;;12.75;7.67;;;;;;;-0.55;100.00;99855.11;1733275;81;21207;-83
2022/03/05 14:20:57;;;;;;;11.75;7.97;;;;;;;-0.53;100.00;99863.89;1733738;82;21220;-83
2022/03/05 14:24:00;;;;;;;10.15;7.60;;;;;;;-0.54;100.00;99880.14;1736592;82;21192;-83